Time;durP1;ratioP1;P1;durP2;ratioP2;P2;SDS_P1;SDS_P2;PMS_P1;PMS_P2;Temp;Humidity;BMP_temperature;BMP_pressure;BME280_temperature;BME280_humidity;BME280_pressure;Samples;Min_cycle;Max_cycle;Signal;HPM_P1;HPM_P2
2023/07/30 00:01:59;;;;;;;23.33;8.90;;;16.50;99.90;;;;;;4989021;28;20451;-65
2023/07/30 00:04:25;;;;;;;23.00;7.68;;;17.10;99.90;;;;;;4983222;28;20038;-65
2023/07/30 00:06:50;;;;;;;28.33;8.77;;;16.50;99.90;;;;;;4988109;28;20488;-65
2023/07/30 00:09:16;;;;;;;28.23;8.32;;;16.50;99.90;;;;;;4982415;28;20121;-66
2023/07/30 00:11:42;;;;;;;27.10;8.60;;;16.20;99.90;;;;;;4981519;28;20523;-66
2023/07/30 00:14:07;;;;;;;28.67;8.65;;;16.70;99.90;;;;;;4989065;28;20112;-66
2023/07/30 00:16:33;;;;;;;29.63;8.43;;;16.60;99.90;;;;;;4989562;28;20045;-66
2023/07/30 00:18:59;;;;;;;24.45;8.38;;;16.70;99.90;;;;;;4989540;28;20492;-65
2023/07/30 00:21:24;;;;;;;36.13;9.50;;;17.10;99.90;;;;;;4988394;28;20107;-66
2023/07/30 00:23:50;;;;;;;26.85;8.55;;;16.50;99.90;;;;;;4979697;28;20038;-66
2023/07/30 00:26:16;;;;;;;26.73;9.23;;;17.00;99.90;;;;;;4982299;28;20036;-65
2023/07/30 00:28:42;;;;;;;32.22;8.65;;;16.80;99.90;;;;;;4987956;28;20523;-64
2023/07/30 00:31:07;;;;;;;24.15;9.38;;;17.00;99.90;;;;;;4976246;28;20034;-67
2023/07/30 00:33:33;;;;;;;21.20;7.53;;;16.80;99.90;;;;;;4989607;28;20038;-66
2023/07/30 00:35:58;;;;;;;24.95;9.48;;;16.20;99.90;;;;;;4989966;28;20493;-65
2023/07/30 00:38:24;;;;;;;24.77;8.00;;;16.50;99.90;;;;;;4992917;28;20034;-65
2023/07/30 00:40:50;;;;;;;25.35;7.88;;;16.20;99.90;;;;;;4984725;28;20051;-65
2023/07/30 00:43:18;;;;;;;25.90;9.13;;;16.80;99.90;;;;;;4990005;28;20038;-66
2023/07/30 00:45:45;;;;;;;31.58;8.23;;;16.60;99.90;;;;;;4988969;28;20043;-66
2023/07/30 00:48:14;;;;;;;27.45;8.25;;;16.70;99.90;;;;;;4986440;28;20613;-66
2023/07/30 00:50:41;;;;;;;23.55;9.70;;;16.40;99.90;;;;;;4993268;28;20035;-65
2023/07/30 00:53:10;;;;;;;19.58;8.10;;;16.90;99.90;;;;;;4991929;28;20113;-65
2023/07/30 00:55:36;;;;;;;27.30;8.10;;;16.60;99.90;;;;;;4985050;28;20374;-66
2023/07/30 00:58:03;;;;;;;25.45;8.32;;;16.40;99.90;;;;;;4983492;28;20039;-65
2023/07/30 01:00:29;;;;;;;26.20;8.85;;;16.70;99.90;;;;;;4992722;28;20037;-66
2023/07/30 01:02:55;;;;;;;26.45;8.52;;;16.90;99.90;;;;;;4993257;28;20089;-66
2023/07/30 01:05:21;;;;;;;25.38;9.60;;;16.70;99.90;;;;;;4992982;28;20080;-65
2023/07/30 01:07:47;;;;;;;28.67;8.25;;;16.50;99.90;;;;;;4982889;28;20042;-66
2023/07/30 01:10:13;;;;;;;28.92;8.48;;;17.00;99.90;;;;;;4990362;28;20477;-66
2023/07/30 01:12:40;;;;;;;24.20;7.75;;;17.00;99.90;;;;;;4991863;28;20045;-66
2023/07/30 01:15:07;;;;;;;24.55;8.32;;;17.00;99.90;;;;;;4992765;28;20109;-66
2023/07/30 01:17:33;;;;;;;26.77;9.23;;;16.90;99.90;;;;;;4991238;28;20045;-66
2023/07/30 01:19:58;;;;;;;24.98;8.52;;;16.90;99.90;;;;;;4988347;28;20047;-66
2023/07/30 01:22:24;;;;;;;23.70;7.10;;;16.90;99.90;;;;;;4991596;28;20034;-66
2023/07/30 01:24:50;;;;;;;23.40;8.25;;;16.60;99.90;;;;;;4992311;28;20046;-66
2023/07/30 01:27:30;;;;;;;23.63;8.25;;;16.80;99.90;;;;;;4997502;28;20614;-66
2023/07/30 01:30:06;;;;;;;25.35;8.07;;;17.00;99.90;;;;;;4991836;28;20050;-66
2023/07/30 01:32:32;;;;;;;24.60;8.00;;;17.10;99.90;;;;;;4992687;28;20046;-65
2023/07/30 01:35:00;;;;;;;25.33;7.80;;;17.10;99.90;;;;;;4992299;28;20046;-66
2023/07/30 01:37:27;;;;;;;25.58;7.28;;;;;;;;;;4988458;28;20031;-66
2023/07/30 01:39:53;;;;;;;24.27;7.15;;;17.10;99.90;;;;;;4988860;28;20053;-65
2023/07/30 01:42:19;;;;;;;25.58;8.02;;;17.10;99.90;;;;;;4987332;28;20045;-66
2023/07/30 01:44:44;;;;;;;35.65;11.18;;;16.70;99.90;;;;;;4989324;28;20117;-66
2023/07/30 01:47:10;;;;;;;20.73;6.95;;;17.80;99.90;;;;;;4992228;28;20488;-65
2023/07/30 01:49:36;;;;;;;28.52;8.30;;;17.20;99.90;;;;;;4980386;28;20046;-64
2023/07/30 01:52:01;;;;;;;32.17;8.00;;;17.40;99.90;;;;;;4987501;28;20066;-66
2023/07/30 01:54:27;;;;;;;28.95;8.68;;;17.20;99.90;;;;;;4981988;28;20050;-65
2023/07/30 01:56:53;;;;;;;24.90;7.68;;;17.50;99.90;;;;;;4988633;28;20089;-66
2023/07/30 01:59:19;;;;;;;26.05;7.35;;;17.10;99.90;;;;;;4980586;28;20664;-66
2023/07/30 02:01:45;;;;;;;25.98;7.03;;;17.20;99.90;;;;;;4995718;28;20260;-65
2023/07/30 02:04:10;;;;;;;22.50;6.57;;;17.30;99.90;;;;;;4984457;28;20116;-67
2023/07/30 02:06:36;;;;;;;23.42;7.20;;;17.30;99.90;;;;;;4987105;28;20096;-65
2023/07/30 02:09:02;;;;;;;23.58;7.22;;;17.20;99.90;;;;;;4979424;28;20038;-65
2023/07/30 02:11:28;;;;;;;27.73;7.40;;;17.30;99.90;;;;;;4987841;28;20034;-66
2023/07/30 02:13:54;;;;;;;21.05;7.25;;;17.30;99.90;;;;;;4991679;28;20046;-66
2023/07/30 02:16:19;;;;;;;28.10;6.90;;;17.20;99.90;;;;;;4992035;28;20515;-65
2023/07/30 02:18:45;;;;;;;23.55;7.85;;;17.20;99.90;;;;;;4993642;28;20245;-66
2023/07/30 02:21:11;;;;;;;30.05;7.70;;;17.10;99.90;;;;;;4992015;28;20034;-66
2023/07/30 02:23:36;;;;;;;25.38;7.55;;;17.20;99.90;;;;;;4991449;28;20034;-65
2023/07/30 02:26:02;;;;;;;23.08;6.85;;;17.40;99.90;;;;;;4990014;28;20045;-65
2023/07/30 02:28:28;;;;;;;21.30;7.10;;;17.20;99.90;;;;;;4991315;28;20070;-66
2023/07/30 02:30:53;;;;;;;22.52;7.03;;;17.10;99.90;;;;;;4979628;28;20042;-66
2023/07/30 02:33:19;;;;;;;24.95;7.20;;;16.70;99.90;;;;;;4985710;28;20034;-65
2023/07/30 02:35:44;;;;;;;18.15;6.47;;;17.10;99.90;;;;;;4991178;28;20547;-65
2023/07/30 02:38:10;;;;;;;23.02;6.13;;;16.90;99.90;;;;;;4990963;28;20048;-66
2023/07/30 02:40:36;;;;;;;25.85;6.97;;;17.30;99.90;;;;;;4985275;28;20046;-65
2023/07/30 02:43:02;;;;;;;19.58;6.35;;;17.20;99.90;;;;;;4990242;28;20042;-66
2023/07/30 02:45:27;;;;;;;21.77;5.80;;;16.70;99.90;;;;;;4992587;28;20034;-65
2023/07/30 02:47:53;;;;;;;23.08;6.93;;;17.20;99.90;;;;;;4982768;28;20040;-65
2023/07/30 02:50:19;;;;;;;18.70;6.13;;;17.00;99.90;;;;;;4991451;28;20469;-66
2023/07/30 02:52:44;;;;;;;20.02;5.90;;;16.80;99.90;;;;;;4989839;28;20459;-64
2023/07/30 02:55:10;;;;;;;16.25;5.60;;;17.30;99.90;;;;;;4989667;28;20038;-65
2023/07/30 02:57:36;;;;;;;17.88;5.45;;;17.10;99.90;;;;;;4988649;28;20555;-66
2023/07/30 03:00:03;;;;;;;25.10;5.90;;;17.10;99.90;;;;;;4982958;28;20178;-66
2023/07/30 03:02:29;;;;;;;24.55;6.22;;;16.50;99.90;;;;;;4983057;28;20390;-66
2023/07/30 03:04:55;;;;;;;25.13;6.40;;;16.90;99.90;;;;;;4988671;28;20126;-65
2023/07/30 03:07:21;;;;;;;21.98;7.03;;;16.90;99.90;;;;;;4987353;28;20033;-65
2023/07/30 03:09:46;;;;;;;23.88;6.25;;;17.20;99.90;;;;;;4989483;28;20057;-65
2023/07/30 03:12:12;;;;;;;21.55;6.65;;;16.60;99.90;;;;;;4989570;28;20518;-65
2023/07/30 03:14:38;;;;;;;17.25;5.72;;;17.00;99.90;;;;;;4990803;28;20112;-66
2023/07/30 03:17:04;;;;;;;23.38;5.95;;;17.00;99.90;;;;;;4989253;28;20496;-66
2023/07/30 03:19:30;;;;;;;15.95;5.25;;;16.90;99.90;;;;;;4990808;28;20599;-66
2023/07/30 03:21:56;;;;;;;20.77;4.95;;;16.80;99.90;;;;;;4982213;28;20035;-65
2023/07/30 03:24:22;;;;;;;18.30;5.82;;;16.70;99.90;;;;;;4989375;28;20116;-66
2023/07/30 03:26:47;;;;;;;23.38;5.55;;;16.70;99.90;;;;;;4989176;28;20034;-65
2023/07/30 03:29:14;;;;;;;18.23;5.97;;;16.60;99.90;;;;;;4974366;28;20035;-66
2023/07/30 03:31:40;;;;;;;17.95;5.40;;;16.80;99.90;;;;;;4985637;28;20042;-65
2023/07/30 03:34:05;;;;;;;15.65;4.32;;;17.00;99.90;;;;;;4980651;28;20046;-65
2023/07/30 03:36:31;;;;;;;16.95;4.78;;;16.80;99.90;;;;;;4985030;28;20330;-65
2023/07/30 03:38:57;;;;;;;19.02;4.32;;;16.40;99.90;;;;;;4986738;28;20042;-66
2023/07/30 03:41:23;;;;;;;18.88;4.95;;;16.60;99.90;;;;;;4987572;28;20046;-65
2023/07/30 03:43:48;;;;;;;16.85;4.22;;;16.70;99.90;;;;;;4980169;28;20046;-65
2023/07/30 03:46:14;;;;;;;21.50;4.45;;;16.60;99.90;;;;;;4982615;28;20039;-65
2023/07/30 03:48:40;;;;;;;13.52;3.97;;;16.90;99.90;;;;;;4982239;28;20045;-66
2023/07/30 03:51:07;;;;;;;11.85;3.20;;;16.40;99.90;;;;;;4987605;28;20042;-66
2023/07/30 03:53:33;;;;;;;12.32;2.95;;;16.90;34.30;;;;;;4981260;28;20357;-66
2023/07/30 03:55:58;;;;;;;11.93;2.63;;;17.10;1.00;;;;;;4987005;28;20124;-66
2023/07/30 03:58:24;;;;;;;10.88;3.22;;;16.80;1.00;;;;;;4988645;28;20049;-65
2023/07/30 04:00:49;;;;;;;14.20;2.75;;;16.90;1.00;;;;;;4977034;28;20050;-65
2023/07/30 04:03:15;;;;;;;15.43;3.03;;;16.90;1.00;;;;;;4980979;28;20041;-65
2023/07/30 04:05:41;;;;;;;10.02;2.97;;;17.00;1.00;;;;;;4990162;28;20065;-66
2023/07/30 04:08:06;;;;;;;12.98;2.70;;;16.90;1.00;;;;;;4988155;28;20091;-66
2023/07/30 04:10:32;;;;;;;11.30;2.78;;;17.10;1.00;;;;;;4990244;28;20042;-65
2023/07/30 04:12:58;;;;;;;9.00;2.33;;;16.90;1.00;;;;;;4988963;28;20046;-64
2023/07/30 04:15:24;;;;;;;11.90;2.83;;;17.10;1.00;;;;;;4988734;28;20448;-66
2023/07/30 04:17:50;;;;;;;8.95;2.90;;;;;;;;;;4989260;28;20236;-65
2023/07/30 04:20:17;;;;;;;17.42;3.15;;;17.00;1.00;;;;;;4985081;28;20515;-66
2023/07/30 04:22:43;;;;;;;11.70;2.63;;;;;;;;;;4983855;28;20045;-65
2023/07/30 04:25:10;;;;;;;9.35;2.28;;;17.40;1.00;;;;;;4979854;28;20039;-65
2023/07/30 04:27:37;;;;;;;8.90;2.45;;;16.30;1.00;;;;;;4971698;28;20069;-65
2023/07/30 04:30:04;;;;;;;9.07;2.95;;;17.00;1.00;;;;;;4984039;28;20109;-66
2023/07/30 04:32:30;;;;;;;11.13;2.67;;;16.70;1.00;;;;;;4989737;28;20476;-66
2023/07/30 04:34:56;;;;;;;13.88;3.17;;;16.60;1.00;;;;;;4981523;28;20158;-65
2023/07/30 04:37:21;;;;;;;11.75;2.90;;;16.90;1.00;;;;;;4979276;28;20047;-65
2023/07/30 04:39:48;;;;;;;14.75;4.38;;;16.80;1.00;;;;;;4985536;28;20061;-66
2023/07/30 04:42:15;;;;;;;8.45;2.40;;;16.70;1.00;;;;;;4987910;28;20093;-66
2023/07/30 04:44:41;;;;;;;11.88;2.65;;;17.00;1.00;;;;;;4989686;28;20871;-66
2023/07/30 04:47:07;;;;;;;6.60;2.67;;;16.90;1.00;;;;;;4977097;28;20038;-65
2023/07/30 04:49:33;;;;;;;10.35;2.90;;;17.10;1.00;;;;;;4981661;28;20066;-65
2023/07/30 04:51:58;;;;;;;10.73;3.35;;;16.70;1.00;;;;;;4988263;28;20105;-65
2023/07/30 04:54:24;;;;;;;12.93;3.47;;;16.80;1.00;;;;;;4988292;28;20488;-66
2023/07/30 04:56:50;;;;;;;13.70;3.70;;;16.90;1.00;;;;;;4988403;28;20050;-66
2023/07/30 04:59:15;;;;;;;9.32;2.53;;;16.70;1.00;;;;;;4983089;28;20046;-66
2023/07/30 05:01:41;;;;;;;11.75;3.05;;;17.40;1.00;;;;;;4988156;28;20058;-65
2023/07/30 05:04:07;;;;;;;9.65;3.15;;;16.90;1.00;;;;;;4989637;28;20038;-66
2023/07/30 05:06:32;;;;;;;14.27;2.80;;;16.80;99.90;;;;;;4988558;28;20384;-66
2023/07/30 05:08:58;;;;;;;16.95;3.28;;;17.10;99.90;;;;;;4989001;28;20481;-65
2023/07/30 05:11:24;;;;;;;14.23;3.05;;;16.70;99.90;;;;;;4989232;28;20042;-65
2023/07/30 05:13:49;;;;;;;13.18;2.72;;;17.20;99.90;;;;;;4989172;28;20042;-66
2023/07/30 05:16:15;;;;;;;12.63;3.08;;;17.10;99.90;;;;;;4982339;28;20354;-65
2023/07/30 05:18:41;;;;;;;11.68;3.13;;;17.00;99.90;;;;;;4979791;28;20078;-65
2023/07/30 05:21:06;;;;;;;8.65;2.42;;;17.00;99.90;;;;;;4990395;28;20043;-65
2023/07/30 05:23:32;;;;;;;13.80;2.90;;;16.80;99.90;;;;;;4991597;28;20030;-64
2023/07/30 05:26:00;;;;;;;11.60;3.78;;;17.40;99.90;;;;;;4985749;28;20042;-66
2023/07/30 05:28:26;;;;;;;15.02;2.80;;;17.20;99.90;;;;;;4992988;28;20563;-65
2023/07/30 05:30:51;;;;;;;7.85;2.17;;;17.10;99.90;;;;;;4986080;28;20031;-66
2023/07/30 05:33:17;;;;;;;15.68;2.72;;;17.20;99.90;;;;;;4983492;28;20043;-66
2023/07/30 05:35:43;;;;;;;11.63;2.88;;;17.40;99.90;;;;;;4992536;28;20042;-65
2023/07/30 05:38:09;;;;;;;12.05;2.60;;;;;;;;;;4989761;28;20042;-66
2023/07/30 05:40:35;;;;;;;10.48;2.80;;;17.20;99.90;;;;;;4990131;28;20042;-65
2023/07/30 05:43:01;;;;;;;13.25;3.13;;;17.20;99.90;;;;;;4985761;28;20049;-65
2023/07/30 05:45:26;;;;;;;9.90;3.33;;;17.20;99.90;;;;;;4987006;28;20645;-66
2023/07/30 05:47:52;;;;;;;8.60;2.60;;;17.20;99.90;;;;;;4983624;28;20121;-66
2023/07/30 05:50:18;;;;;;;10.68;3.42;;;17.50;99.90;;;;;;4991571;28;20141;-66
2023/07/30 05:52:44;;;;;;;11.93;2.88;;;17.20;99.90;;;;;;4985842;28;20049;-66
2023/07/30 05:55:09;;;;;;;10.93;3.05;;;17.30;99.90;;;;;;4990200;28;20049;-66
2023/07/30 05:57:35;;;;;;;9.25;2.80;;;17.30;99.90;;;;;;4992278;28;20500;-66
2023/07/30 06:00:01;;;;;;;10.88;2.65;;;17.40;99.90;;;;;;4984499;28;20470;-66
2023/07/30 06:02:26;;;;;;;10.80;2.80;;;17.30;99.90;;;;;;4976043;28;20030;-65
2023/07/30 06:04:52;;;;;;;9.52;2.40;;;17.40;99.90;;;;;;4982851;28;20113;-66
2023/07/30 06:07:18;;;;;;;10.13;2.90;;;17.40;99.90;;;;;;4991953;28;20034;-66
2023/07/30 06:09:45;;;;;;;12.02;2.78;;;17.60;99.90;;;;;;4991795;28;20125;-66
2023/07/30 06:12:11;;;;;;;8.75;2.50;;;17.10;99.90;;;;;;4991895;28;20060;-66
2023/07/30 06:14:36;;;;;;;13.45;3.08;;;17.30;99.90;;;;;;4991834;28;20042;-66
2023/07/30 06:17:02;;;;;;;10.85;3.22;;;17.50;99.90;;;;;;4991595;28;20042;-65
2023/07/30 06:19:28;;;;;;;11.10;2.47;;;17.20;99.90;;;;;;4983694;28;20534;-65
2023/07/30 06:21:53;;;;;;;12.13;2.90;;;17.40;99.90;;;;;;4982444;28;20034;-65
2023/07/30 06:24:19;;;;;;;10.68;2.92;;;17.30;99.90;;;;;;4989595;28;20142;-67
2023/07/30 06:26:45;;;;;;;10.15;3.15;;;17.40;99.90;;;;;;4988625;28;20076;-66
2023/07/30 06:29:10;;;;;;;9.32;2.83;;;17.30;99.90;;;;;;4989712;28;20361;-66
2023/07/30 06:31:36;;;;;;;12.75;2.83;;;17.70;99.90;;;;;;4979382;28;20492;-65
2023/07/30 06:34:02;;;;;;;10.95;2.80;;;17.50;99.90;;;;;;4991131;28;20038;-66
2023/07/30 06:36:27;;;;;;;11.55;3.17;;;17.40;99.90;;;;;;4983142;28;20038;-66
2023/07/30 06:38:53;;;;;;;10.82;3.25;;;17.50;99.90;;;;;;4982044;28;20129;-66
2023/07/30 06:41:19;;;;;;;9.63;2.72;;;17.60;99.90;;;;;;4989736;28;20058;-65
2023/07/30 06:43:45;;;;;;;9.43;2.55;;;17.50;99.90;;;;;;4989534;28;20047;-65
2023/07/30 06:46:10;;;;;;;12.50;2.83;;;18.00;99.90;;;;;;4991948;28;20058;-66
2023/07/30 06:48:36;;;;;;;9.23;2.47;;;17.90;99.90;;;;;;4985727;28;20038;-66
2023/07/30 06:51:07;;;;;;;8.20;3.08;;;18.10;74.80;;;;;;4991315;28;20046;-66
2023/07/30 06:53:32;;;;;;;10.68;2.60;;;17.80;1.00;;;;;;4987623;28;20114;-66
2023/07/30 06:55:58;;;;;;;9.48;2.33;;;18.30;8.30;;;;;;4991191;28;20436;-66
2023/07/30 06:58:23;;;;;;;11.23;2.45;;;18.50;9.40;;;;;;4980802;28;20481;-65
2023/07/30 07:00:49;;;;;;;12.55;3.72;;;18.00;1.00;;;;;;4985270;28;20045;-66
2023/07/30 07:03:15;;;;;;;11.15;2.63;;;18.30;1.00;;;;;;4985229;28;20030;-66
2023/07/30 07:05:40;;;;;;;10.73;3.38;;;18.40;1.00;;;;;;4983676;28;20046;-65
2023/07/30 07:08:06;;;;;;;12.25;2.97;;;18.10;1.00;;;;;;4982792;28;20046;-65
2023/07/30 07:10:32;;;;;;;10.80;2.58;;;;;;;;;;4989413;28;20386;-66
2023/07/30 07:12:58;;;;;;;10.60;2.78;;;18.50;99.90;;;;;;4990197;28;20057;-66
2023/07/30 07:15:24;;;;;;;9.00;2.40;;;19.00;99.90;;;;;;4990371;28;20045;-66
2023/07/30 07:17:49;;;;;;;8.70;3.00;;;19.00;99.90;;;;;;4987758;28;20081;-65
2023/07/30 07:20:15;;;;;;;9.88;2.20;;;19.20;99.90;;;;;;4985780;28;20049;-66
2023/07/30 07:22:41;;;;;;;11.93;3.00;;;19.00;99.90;;;;;;4989267;28;20042;-66
2023/07/30 07:25:07;;;;;;;10.15;2.72;;;19.00;1.00;;;;;;4990611;28;20065;-66
2023/07/30 07:27:32;;;;;;;8.85;2.78;;;18.60;1.00;;;;;;4987248;28;20093;-66
2023/07/30 07:29:59;;;;;;;12.48;2.50;;;19.20;1.00;;;;;;4990033;28;20088;-65
2023/07/30 07:32:24;;;;;;;9.32;2.20;;;18.60;99.90;;;;;;4986497;28;20125;-66
2023/07/30 07:34:50;;;;;;;12.27;2.65;;;18.50;99.90;;;;;;4989580;28;20519;-66
2023/07/30 07:37:18;;;;;;;7.72;2.35;;;18.70;1.00;;;;;;4989348;28;20319;-66
2023/07/30 07:39:44;;;;;;;10.68;2.55;;;18.90;99.90;;;;;;4992519;28;20423;-66
2023/07/30 07:42:11;;;;;;;8.02;2.40;;;18.60;1.00;;;;;;4987307;28;20396;-65
2023/07/30 07:44:37;;;;;;;12.35;2.30;;;19.20;1.00;;;;;;4982253;28;20097;-65
2023/07/30 07:47:03;;;;;;;11.55;3.08;;;19.00;1.00;;;;;;4985147;28;20042;-65
2023/07/30 07:49:29;;;;;;;13.88;2.85;;;19.10;1.00;;;;;;4989876;28;21219;-64
2023/07/30 07:51:54;;;;;;;13.77;2.55;;;19.00;1.00;;;;;;4978619;28;20126;-66
2023/07/30 07:54:20;;;;;;;9.63;2.30;;;19.00;1.00;;;;;;4987069;28;20050;-67
2023/07/30 07:56:46;;;;;;;12.45;2.83;;;19.00;33.30;;;;;;4984393;28;20034;-66
2023/07/30 07:59:11;;;;;;;12.20;2.83;;;18.50;1.00;;;;;;4989639;28;20527;-65
2023/07/30 08:01:37;;;;;;;8.48;2.13;;;19.10;15.70;;;;;;4989664;28;20541;-65
2023/07/30 08:04:03;;;;;;;10.50;2.70;;;18.40;70.80;;;;;;4983746;28;20263;-66
2023/07/30 08:06:29;;;;;;;11.23;2.60;;;18.90;99.90;;;;;;4985196;28;20269;-66
2023/07/30 08:08:55;;;;;;;9.27;2.63;;;18.50;99.90;;;;;;4978620;28;20046;-66
2023/07/30 08:11:21;;;;;;;12.00;2.70;;;19.10;99.90;;;;;;4987073;28;20049;-66
2023/07/30 08:13:46;;;;;;;10.60;2.70;;;18.70;99.90;;;;;;4985629;28;20504;-66
2023/07/30 08:16:12;;;;;;;12.90;3.65;;;18.60;99.90;;;;;;4986299;28;20408;-65
2023/07/30 08:18:38;;;;;;;11.07;3.17;;;19.10;99.90;;;;;;4993932;28;20264;-66
2023/07/30 08:21:03;;;;;;;12.88;2.83;;;18.50;99.90;;;;;;4978447;28;20564;-65
2023/07/30 08:23:29;;;;;;;11.00;2.33;;;18.60;99.90;;;;;;4987745;28;20065;-66
2023/07/30 08:25:55;;;;;;;11.40;2.67;;;18.10;99.90;;;;;;4988566;28;20408;-66
2023/07/30 08:28:21;;;;;;;11.43;3.08;;;18.10;99.90;;;;;;4988694;28;20074;-65
2023/07/30 08:30:47;;;;;;;13.82;4.35;;;18.60;99.90;;;;;;4989189;28;20035;-65
2023/07/30 08:33:12;;;;;;;9.65;2.15;;;18.00;99.90;;;;;;4989826;28;20108;-66
2023/07/30 08:35:38;;;;;;;10.45;2.70;;;17.70;1.00;;;;;;4989055;28;20042;-66
2023/07/30 08:38:04;;;;;;;9.85;2.72;;;17.40;1.70;;;;;;4989461;28;20038;-64
2023/07/30 08:40:29;;;;;;;13.35;2.17;;;16.60;91.60;;;;;;4987834;28;20050;-65
2023/07/30 08:42:55;;;;;;;9.05;2.05;;;16.80;99.90;;;;;;4989548;28;20519;-66
2023/07/30 08:45:21;;;;;;;8.13;2.95;;;16.60;99.90;;;;;;4980175;28;20413;-65
2023/07/30 08:47:47;;;;;;;8.70;2.33;;;16.80;99.90;;;;;;4989451;28;20050;-65
2023/07/30 08:50:14;;;;;;;9.25;2.58;;;16.70;99.90;;;;;;4975846;28;20047;-65
2023/07/30 08:52:40;;;;;;;12.93;2.97;;;16.80;99.90;;;;;;4986771;28;20134;-68
2023/07/30 08:55:06;;;;;;;8.43;2.00;;;16.60;99.90;;;;;;4990312;28;20447;-66
2023/07/30 08:57:33;;;;;;;9.50;2.50;;;16.90;99.90;;;;;;4986325;28;20053;-66
2023/07/30 09:00:11;;;;;;;7.88;2.15;;;17.60;99.90;;;;;;4992621;28;20042;-64
2023/07/30 09:02:47;;;;;;;16.45;2.80;;;17.80;99.90;;;;;;4990752;28;20408;-65
2023/07/30 09:05:13;;;;;;;10.63;2.42;;;;;;;;;;5010160;28;20399;-65
2023/07/30 09:07:39;;;;;;;8.13;2.42;;;17.70;99.90;;;;;;4989821;28;20054;-65
2023/07/30 09:10:05;;;;;;;11.85;3.22;;;17.80;99.90;;;;;;4991687;28;20042;-66
2023/07/30 09:12:35;;;;;;;8.20;2.55;;;18.00;91.20;;;;;;4992956;28;20050;-65
2023/07/30 09:15:05;;;;;;;12.50;3.28;;;18.00;75.00;;;;;;4982747;28;20041;-66
2023/07/30 09:17:30;;;;;;;8.90;2.47;;;18.00;91.50;;;;;;4966997;28;20503;-65
2023/07/30 09:19:59;;;;;;;11.50;3.33;;;18.00;65.20;;;;;;4984570;28;20049;-65
2023/07/30 09:22:30;;;;;;;13.30;2.63;;;18.20;64.50;;;;;;4992532;28;20034;-65
2023/07/30 09:24:57;;;;;;;7.55;2.25;;;18.20;1.00;;;;;;4987501;28;20373;-66
2023/07/30 09:27:26;;;;;;;13.05;3.53;;;18.50;1.00;;;;;;4992768;28;20062;-65
2023/07/30 09:30:02;;;;;;;9.90;2.20;;;18.20;1.00;;;;;;4986237;28;20061;-64
2023/07/30 09:32:30;;;;;;;13.20;3.83;;;18.40;1.00;;;;;;4985818;28;20040;-66
2023/07/30 09:35:03;;;;;;;10.25;3.03;;;18.10;1.00;;;;;;4992864;28;20081;-65
2023/07/30 09:37:29;;;;;;;14.75;3.92;;;18.30;1.00;;;;;;4989999;28;20116;-65
2023/07/30 09:39:57;;;;;;;10.90;2.80;;;18.80;99.90;;;;;;4992592;28;20410;-65
2023/07/30 09:42:27;;;;;;;8.68;2.22;;;19.20;99.90;;;;;;4992310;28;20492;-65
2023/07/30 09:44:53;;;;;;;11.15;2.38;;;19.30;99.90;;;;;;4991218;28;20100;-64
2023/07/30 09:47:18;;;;;;;6.80;2.03;;;19.20;26.60;;;;;;4984054;28;20235;-66
2023/07/30 09:49:44;;;;;;;12.50;2.40;;;18.90;1.00;;;;;;4991739;28;20353;-65
2023/07/30 09:52:11;;;;;;;9.00;2.47;;;19.30;44.40;;;;;;4991236;28;20125;-65
2023/07/30 09:54:39;;;;;;;9.73;2.30;;;19.40;1.00;;;;;;4992200;28;20046;-65
2023/07/30 09:57:05;;;;;;;9.65;3.13;;;19.70;99.90;;;;;;4987743;28;20053;-65
2023/07/30 09:59:31;;;;;;;9.95;2.38;;;19.80;99.90;;;;;;4996285;28;20048;-65
2023/07/30 10:01:58;;;;;;;7.88;2.38;;;19.40;1.00;;;;;;4967722;28;20042;-65
2023/07/30 10:04:24;;;;;;;8.50;2.22;;;19.50;98.50;;;;;;4992234;28;20110;-65
2023/07/30 10:07:04;;;;;;;10.07;2.50;;;19.60;99.90;;;;;;4993884;28;20556;-65
2023/07/30 10:09:43;;;;;;;11.70;2.83;;;19.60;99.90;;;;;;4988298;28;20508;-65
2023/07/30 10:12:22;;;;;;;7.82;3.00;;;20.00;25.00;;;;;;5003274;28;20364;-65
2023/07/30 10:14:48;;;;;;;9.20;2.28;;;19.90;1.00;;;;;;4990491;28;20050;-66
2023/07/30 10:17:17;;;;;;;6.47;2.28;;;19.80;99.90;;;;;;4986586;28;20044;-65
2023/07/30 10:19:48;;;;;;;8.38;2.08;;;20.10;99.90;;;;;;4982300;28;20050;-65
2023/07/30 10:22:14;;;;;;;9.40;2.10;;;20.00;99.90;;;;;;4987025;28;20049;-66
2023/07/30 10:24:40;;;;;;;9.93;3.05;;;20.00;99.90;;;;;;4976917;28;20533;-65
2023/07/30 10:27:08;;;;;;;9.15;2.17;;;19.90;99.90;;;;;;4994063;28;20080;-65
2023/07/30 10:29:41;;;;;;;9.63;2.13;;;20.10;99.90;;;;;;4995527;28;20316;-66
2023/07/30 10:32:07;;;;;;;7.43;2.65;;;19.90;99.90;;;;;;4988886;28;20049;-65
2023/07/30 10:34:46;;;;;;;12.50;2.25;;;20.20;99.90;;;;;;4984617;28;20396;-66
2023/07/30 10:37:18;;;;;;;7.93;2.30;;;19.80;99.90;;;;;;4991326;28;20042;-65
2023/07/30 10:39:48;;;;;;;14.25;2.80;;;19.90;99.90;;;;;;4989751;28;20050;-64
2023/07/30 10:42:14;;;;;;;11.38;2.53;;;20.40;99.90;;;;;;4991617;28;20042;-65
2023/07/30 10:44:44;;;;;;;10.80;2.75;;;20.30;99.90;;;;;;4993063;28;20038;-65
2023/07/30 10:47:10;;;;;;;9.75;3.08;;;20.30;99.90;;;;;;4985108;28;20038;-66
2023/07/30 10:49:46;;;;;;;9.60;2.40;;;20.30;99.90;;;;;;4982458;28;20034;-65
2023/07/30 10:52:12;;;;;;;10.50;2.78;;;20.60;99.90;;;;;;4980178;28;20540;-65
2023/07/30 10:54:38;;;;;;;11.10;2.90;;;19.80;99.90;;;;;;4988407;28;20046;-65
2023/07/30 10:57:04;;;;;;;8.18;2.47;;;19.80;99.90;;;;;;4986595;28;20161;-64
2023/07/30 10:59:37;;;;;;;9.25;2.03;;;19.90;99.90;;;;;;4987974;28;20053;-65
2023/07/30 11:02:03;;;;;;;11.57;2.33;;;19.80;99.90;;;;;;4975780;28;20038;-66
2023/07/30 11:04:29;;;;;;;13.52;2.28;;;19.90;99.90;;;;;;4987187;28;20161;-66
2023/07/30 11:06:54;;;;;;;7.53;1.63;;;19.70;99.90;;;;;;4985837;28;20116;-65
2023/07/30 11:09:22;;;;;;;8.45;2.05;;;20.00;99.90;;;;;;4990761;28;20042;-65
2023/07/30 11:11:49;;;;;;;6.97;1.90;;;20.00;99.90;;;;;;4990487;28;20050;-64
2023/07/30 11:14:20;;;;;;;8.93;2.10;;;20.20;99.90;;;;;;4982376;28;20042;-65
2023/07/30 11:17:07;;;;;;;9.75;2.40;;;19.90;99.90;;;;;;4982438;28;20061;-66
2023/07/30 11:19:33;;;;;;;9.70;2.33;;;19.90;99.90;;;;;;4992431;28;20078;-65
2023/07/30 11:21:59;;;;;;;9.75;2.22;;;20.20;99.90;;;;;;4981369;28;20053;-65
2023/07/30 11:24:35;;;;;;;7.97;2.08;;;20.30;99.90;;;;;;4979399;28;20035;-65
2023/07/30 11:27:01;;;;;;;7.22;2.05;;;19.90;99.90;;;;;;4984778;28;20521;-65
2023/07/30 11:29:28;;;;;;;7.80;2.08;;;19.00;99.90;;;;;;4980511;28;20552;-64
2023/07/30 11:31:58;;;;;;;8.90;2.88;;;18.30;99.90;;;;;;4975303;28;20053;-65
2023/07/30 11:34:25;;;;;;;14.57;2.28;;;;;;;;;;4984152;28;20046;-65
2023/07/30 11:36:51;;;;;;;11.13;2.15;;;18.50;26.40;;;;;;4982110;28;20556;-65
2023/07/30 11:39:17;;;;;;;9.23;2.22;;;18.20;1.00;;;;;;4988842;28;20038;-65
2023/07/30 11:41:45;;;;;;;9.23;2.00;;;;;;;;;;4987700;28;20470;-65
2023/07/30 11:44:30;;;;;;;7.07;1.90;;;18.30;99.90;;;;;;4974772;28;20130;-66
2023/07/30 11:46:56;;;;;;;8.68;2.17;;;19.50;99.90;;;;;;4989380;28;20043;-65
2023/07/30 11:49:22;;;;;;;8.77;1.80;;;19.50;99.90;;;;;;4990404;28;20214;-66
2023/07/30 11:51:48;;;;;;;4.75;1.63;;;19.30;1.00;;;;;;4981043;28;20092;-65
2023/07/30 11:54:23;;;;;;;8.80;2.10;;;19.70;99.90;;;;;;4980781;28;20121;-65
2023/07/30 11:56:56;;;;;;;8.95;2.25;;;19.70;99.90;;;;;;4990061;28;20049;-65
2023/07/30 11:59:21;;;;;;;7.13;2.30;;;19.90;99.90;;;;;;4995308;28;20038;-65
2023/07/30 12:01:47;;;;;;;8.10;1.60;;;20.00;99.90;;;;;;4988504;28;20050;-65
2023/07/30 12:04:13;;;;;;;9.50;2.45;;;20.30;50.80;;;;;;4995006;28;20117;-65
2023/07/30 12:06:47;;;;;;;9.95;1.80;;;20.40;1.00;;;;;;4991811;28;20114;-65
2023/07/30 12:09:21;;;;;;;12.02;2.67;;;20.50;1.00;;;;;;4982481;28;20043;-65
2023/07/30 12:11:48;;;;;;;;;;;21.00;1.00;;;;;;4983009;28;20086;-65
2023/07/30 12:14:14;;;;;;;12.23;3.38;;;21.20;1.00;;;;;;4987653;28;19918;-65
2023/07/30 12:16:40;;;;;;;8.40;2.10;;;20.90;38.30;;;;;;4989789;28;20081;-65
2023/07/30 12:19:06;;;;;;;9.45;2.53;;;21.00;34.50;;;;;;4982511;28;20074;-66
2023/07/30 12:21:31;;;;;;;6.35;1.73;;;21.30;1.00;;;;;;4983780;28;20039;-66
2023/07/30 12:23:57;;;;;;;9.13;1.98;;;21.40;1.00;;;;;;4982014;28;20042;-66
2023/07/30 12:26:22;;;;;;;7.40;1.73;;;21.40;1.00;;;;;;4983027;28;20039;-66
2023/07/30 12:28:48;;;;;;;6.50;1.70;;;20.90;1.00;;;;;;4990040;28;20066;-66
2023/07/30 12:31:14;;;;;;;7.32;1.80;;;21.00;1.00;;;;;;5000140;28;20048;-66
2023/07/30 12:33:39;;;;;;;8.00;2.08;;;20.80;1.00;;;;;;4994118;28;20096;-66
2023/07/30 12:36:05;;;;;;;7.38;2.17;;;20.90;1.00;;;;;;4981729;28;20504;-65
2023/07/30 12:38:31;;;;;;;9.48;2.72;;;21.20;1.00;;;;;;4992483;28;20041;-66
2023/07/30 12:40:56;;;;;;;11.38;2.00;;;21.00;1.00;;;;;;4991547;28;20131;-65
2023/07/30 12:43:22;;;;;;;9.32;2.25;;;22.50;99.90;;;;;;4986551;28;20458;-66